Time;durP1;ratioP1;P1;durP2;ratioP2;P2;SDS_P1;SDS_P2;PMS_P1;PMS_P2;Temp;Humidity;BMP_temperature;BMP_pressure;BME280_temperature;BME280_humidity;BME280_pressure;Samples;Min_cycle;Max_cycle;Signal;HPM_P1;HPM_P2
2023/07/13 00:01:27;;;;;;;3.72;3.40;;;;;;;;;;5050602;28;20043;-53
2023/07/13 00:03:53;;;;;;;9.10;4.00;;;;;;;;;;5054556;28;20048;-53
2023/07/13 00:06:19;;;;;;;6.75;3.78;;;;;;;;;;5042792;28;20128;-51
2023/07/13 00:08:45;;;;;;;6.15;3.88;;;;;;;;;;5018712;28;20029;-52
2023/07/13 00:11:10;;;;;;;3.92;3.28;;;;;;;;;;5039964;28;20041;-53
2023/07/13 00:13:38;;;;;;;3.78;3.45;;;;;;;;;;5051056;28;20108;-53
2023/07/13 00:16:03;;;;;;;7.15;3.88;;;;;;;;;;5055358;28;20052;-53
2023/07/13 00:18:29;;;;;;;5.53;4.00;;;;;;;;;;5052927;28;20032;-52
2023/07/13 00:20:56;;;;;;;7.05;4.63;;;;;;;;;;5021150;28;20037;-53
2023/07/13 00:23:21;;;;;;;6.18;4.70;;;;;;;;;;5047524;28;20647;-55
2023/07/13 00:25:47;;;;;;;8.73;4.05;;;;;;;;;;5032037;28;20041;-54
2023/07/13 00:28:12;;;;;;;7.57;4.20;;;;;;;;;;5057282;28;20021;-54
2023/07/13 00:30:38;;;;;;;5.05;3.92;;;;;;;;;;5023043;28;20408;-54
2023/07/13 00:33:03;;;;;;;6.60;4.47;;;;;;;;;;5036668;28;20033;-54
2023/07/13 00:35:31;;;;;;;4.82;4.15;;;;;;;;;;5052347;28;20098;-56
2023/07/13 00:37:56;;;;;;;7.15;4.28;;;;;;;;;;5020112;28;20021;-55
2023/07/13 00:40:22;;;;;;;11.13;4.28;;;;;;;;;;5053933;28;20052;-54
2023/07/13 00:42:47;;;;;;;6.30;3.97;;;;;;;;;;5023120;28;20025;-55
2023/07/13 00:45:12;;;;;;;6.15;4.55;;;;;;;;;;5039280;28;20382;-54
2023/07/13 00:47:41;;;;;;;5.05;4.30;;;;;;;;;;5046566;28;20462;-53
2023/07/13 00:50:10;;;;;;;6.43;4.00;;;;;;;;;;5058256;28;20029;-54
2023/07/13 00:52:37;;;;;;;5.78;4.43;;;;;;;;;;5057092;28;20029;-53
2023/07/13 00:55:03;;;;;;;7.50;4.57;;;;;;;;;;5059478;28;20033;-52
2023/07/13 00:57:29;;;;;;;7.57;4.85;;;;;;;;;;5040585;28;20485;-55
2023/07/13 00:59:58;;;;;;;4.43;4.03;;;;;;;;;;5035119;28;20514;-52
2023/07/13 01:02:25;;;;;;;5.88;4.35;;;;;;;;;;5050340;28;20021;-49
2023/07/13 01:04:51;;;;;;;8.32;4.25;;;;;;;;;;5036803;28;20021;-50
2023/07/13 01:07:17;;;;;;;5.35;4.35;;;;;;;;;;5020231;28;20049;-51
2023/07/13 01:09:44;;;;;;;9.52;5.32;;;;;;;;;;5055526;28;20154;-55
2023/07/13 01:12:10;;;;;;;9.43;4.47;;;;;;;;;;5055708;28;20124;-54
2023/07/13 01:14:36;;;;;;;5.35;3.88;;;;;;;;;;5034982;28;20033;-53
2023/07/13 01:17:02;;;;;;;7.70;4.88;;;;;;;;;;5023343;28;20061;-55
2023/07/13 01:19:39;;;;;;;8.90;4.57;;;;;;;;;;5051794;28;20020;-49
2023/07/13 01:22:14;;;;;;;8.82;4.22;;;;;;;;;;5055084;28;20058;-55
2023/07/13 01:24:42;;;;;;;6.88;4.10;;;;;;;;;;5042857;28;20039;-55
2023/07/13 01:27:09;;;;;;;5.68;4.00;;;;;;;;;;5045974;28;20041;-54
2023/07/13 01:29:41;;;;;;;6.57;4.30;;;;;;;;;;5034805;28;20552;-55
2023/07/13 01:32:08;;;;;;;6.22;4.32;;;;;;;;;;5036182;28;20033;-55
2023/07/13 01:34:34;;;;;;;6.30;4.40;;;;;;;;;;5030387;28;20028;-54
2023/07/13 01:36:59;;;;;;;6.10;3.95;;;;;;;;;;5036206;28;20037;-54
2023/07/13 01:39:24;;;;;;;10.63;4.55;;;;;;;;;;5038453;28;20754;-52
2023/07/13 01:41:50;;;;;;;5.93;4.40;;;;;;;;;;5047616;28;20041;-55
2023/07/13 01:44:15;;;;;;;7.18;4.40;;;;;;;;;;5041979;28;20040;-49
2023/07/13 01:46:41;;;;;;;5.38;4.88;;;;;;;;;;5050825;28;20045;-53
2023/07/13 01:49:06;;;;;;;7.25;4.40;;;;;;;;;;5031882;28;20037;-54
2023/07/13 01:51:31;;;;;;;6.82;3.80;;;;;;;;;;5046348;28;20044;-51
2023/07/13 01:53:57;;;;;;;5.65;4.15;;;;;;;;;;5025425;28;20036;-55
2023/07/13 01:56:22;;;;;;;6.10;4.18;;;;;;;;;;5039250;28;20506;-54
2023/07/13 01:58:48;;;;;;;7.47;4.03;;;;;;;;;;5022903;28;20022;-54
2023/07/13 02:01:13;;;;;;;8.68;4.18;;;;;;;;;;5036859;28;20044;-54
2023/07/13 02:03:39;;;;;;;6.63;4.00;;;;;;;;;;5035192;28;20104;-53
2023/07/13 02:06:04;;;;;;;7.25;3.95;;;;;;;;;;5024515;28;20124;-52
2023/07/13 02:08:31;;;;;;;8.02;4.05;;;;;;;;;;5035839;28;20021;-52
2023/07/13 02:10:57;;;;;;;4.85;3.60;;;;;;;;;;5046740;28;20132;-53
2023/07/13 02:13:22;;;;;;;7.07;3.78;;;;;;;;;;5055947;28;20498;-52
2023/07/13 02:15:50;;;;;;;6.40;3.42;;;;;;;;;;5053187;28;20099;-52
2023/07/13 02:18:16;;;;;;;5.45;3.90;;;;;;;;;;5043185;28;20059;-54
2023/07/13 02:20:43;;;;;;;7.93;3.58;;;;;;;;;;5036905;28;20041;-52
2023/07/13 02:23:08;;;;;;;5.32;3.40;;;;;;;;;;5047468;28;20082;-55
2023/07/13 02:25:34;;;;;;;5.57;3.80;;;;;;;;;;5054550;28;20479;-54
2023/07/13 02:27:59;;;;;;;5.20;3.00;;;;;;;;;;5046476;28;20025;-54
2023/07/13 02:30:25;;;;;;;4.88;3.30;;;;;;;;;;5009110;28;20064;-53
2023/07/13 02:32:50;;;;;;;6.25;3.45;;;;;;;;;;5038351;28;20056;-53
2023/07/13 02:35:16;;;;;;;3.60;3.15;;;;;;;;;;5039271;28;20042;-54
2023/07/13 02:37:41;;;;;;;4.93;3.15;;;;;;;;;;5038984;28;20028;-52
2023/07/13 02:40:08;;;;;;;8.02;3.03;;;;;;;;;;5038253;28;20084;-55
2023/07/13 02:42:34;;;;;;;6.25;3.17;;;;;;;;;;5036166;28;20020;-53
2023/07/13 02:45:00;;;;;;;4.32;3.35;;;;;;;;;;5035585;28;20025;-54
2023/07/13 02:47:26;;;;;;;6.45;2.92;;;;;;;;;;5036467;28;20143;-52
2023/07/13 02:49:52;;;;;;;5.30;2.75;;;;;;;;;;5053580;28;20021;-53
2023/07/13 02:52:17;;;;;;;3.80;3.10;;;;;;;;;;5055264;28;20047;-54
2023/07/13 02:54:43;;;;;;;7.47;3.13;;;;;;;;;;5054036;28;20019;-50
2023/07/13 02:57:08;;;;;;;4.13;2.58;;;;;;;;;;5031984;28;20036;-55
2023/07/13 02:59:34;;;;;;;3.40;2.40;;;;;;;;;;5045010;28;20056;-55
2023/07/13 03:02:01;;;;;;;4.55;2.88;;;;;;;;;;5048500;28;20037;-55
2023/07/13 03:04:26;;;;;;;3.85;2.78;;;;;;;;;;5045690;28;20091;-52
2023/07/13 03:06:52;;;;;;;8.50;2.67;;;;;;;;;;5037102;28;20029;-55
2023/07/13 03:09:17;;;;;;;3.92;2.42;;;;;;;;;;5040584;28;20028;-54
2023/07/13 03:11:43;;;;;;;6.47;3.15;;;;;;;;;;5037577;28;20033;-53
2023/07/13 03:14:08;;;;;;;5.05;2.58;;;;;;;;;;5053691;28;20059;-55
2023/07/13 03:16:34;;;;;;;6.25;2.58;;;;;;;;;;5053777;28;20056;-52
2023/07/13 03:18:59;;;;;;;4.18;2.22;;;;;;;;;;5055305;28;20112;-55
2023/07/13 03:21:25;;;;;;;6.70;2.90;;;;;;;;;;5039187;28;20510;-53
2023/07/13 03:23:50;;;;;;;4.03;2.53;;;;;;;;;;5039410;28;20068;-53
2023/07/13 03:26:20;;;;;;;8.68;2.92;;;;;;;;;;5026694;28;21683;-53
2023/07/13 03:28:46;;;;;;;2.63;2.20;;;;;;;;;;5053965;28;20059;-52
2023/07/13 03:31:20;;;;;;;7.30;2.40;;;;;;;;;;5051113;28;20135;-50
2023/07/13 03:33:46;;;;;;;2.63;2.38;;;;;;;;;;5051426;28;20032;-51
2023/07/13 03:36:18;;;;;;;8.18;3.47;;;;;;;;;;5051043;28;20037;-51
2023/07/13 03:38:46;;;;;;;4.60;2.08;;;;;;;;;;5042956;28;20025;-54
2023/07/13 03:41:11;;;;;;;3.25;2.17;;;;;;;;;;5045431;28;20107;-54
2023/07/13 03:43:37;;;;;;;5.88;2.45;;;;;;;;;;5032128;28;20029;-54
2023/07/13 03:46:02;;;;;;;4.78;2.45;;;;;;;;;;5036899;28;20055;-53
2023/07/13 03:48:27;;;;;;;2.97;2.40;;;;;;;;;;5054517;28;20028;-50
2023/07/13 03:50:53;;;;;;;4.43;2.17;;;;;;;;;;5028217;28;20495;-52
2023/07/13 03:53:19;;;;;;;5.40;2.33;;;;;;;;;;5046971;28;20041;-53
2023/07/13 03:55:44;;;;;;;4.28;2.60;;;;;;;;;;5032123;28;20041;-53
2023/07/13 03:58:30;;;;;;;5.88;2.38;;;;;;;;;;5054310;28;20390;-55
2023/07/13 04:00:57;;;;;;;4.05;2.10;;;;;;;;;;5048041;28;20036;-54
2023/07/13 04:03:23;;;;;;;7.07;2.50;;;;;;;;;;5049990;28;20036;-52
2023/07/13 04:05:48;;;;;;;5.47;2.42;;;;;;;;;;5042003;28;20667;-55
2023/07/13 04:08:14;;;;;;;6.03;1.90;;;;;;;;;;5037321;28;20029;-49
2023/07/13 04:10:39;;;;;;;3.28;2.15;;;;;;;;;;5043361;28;20053;-52
2023/07/13 04:13:05;;;;;;;5.40;2.65;;;;;;;;;;5041551;28;20128;-54
2023/07/13 04:15:32;;;;;;;6.20;2.47;;;;;;;;;;5058654;28;20124;-55
2023/07/13 04:17:57;;;;;;;4.45;2.20;;;;;;;;;;5058495;28;20024;-50
2023/07/13 04:20:24;;;;;;;6.55;2.28;;;;;;;;;;5038008;28;20079;-54
2023/07/13 04:22:49;;;;;;;6.18;2.75;;;;;;;;;;5055720;28;20036;-53
2023/07/13 04:25:15;;;;;;;4.18;2.47;;;;;;;;;;5023908;28;20486;-55
2023/07/13 04:27:41;;;;;;;4.88;2.30;;;;;;;;;;5056113;28;20051;-53
2023/07/13 04:30:07;;;;;;;4.40;2.22;;;;;;;;;;5032566;28;20020;-55
2023/07/13 04:32:32;;;;;;;5.85;1.98;;;;;;;;;;5033375;28;20028;-55
2023/07/13 04:34:59;;;;;;;3.85;2.70;;;;;;;;;;5053061;28;20074;-54
2023/07/13 04:37:25;;;;;;;4.13;2.72;;;;;;;;;;5034191;28;20021;-55
2023/07/13 04:39:50;;;;;;;3.88;2.40;;;;;;;;;;5057059;28;20025;-54
2023/07/13 04:42:16;;;;;;;3.63;2.05;;;;;;;;;;5055790;28;20048;-52
2023/07/13 04:44:41;;;;;;;8.63;2.10;;;;;;;;;;5043019;28;20047;-55
2023/07/13 04:47:07;;;;;;;5.97;3.38;;;;;;;;;;5048976;28;20083;-53
2023/07/13 04:49:33;;;;;;;3.13;1.90;;;;;;;;;;5032543;28;20367;-54
2023/07/13 04:51:58;;;;;;;3.28;2.05;;;;;;;;;;5056624;28;20029;-52
2023/07/13 04:54:23;;;;;;;3.75;2.40;;;;;;;;;;5041113;28;20044;-53
2023/07/13 04:56:49;;;;;;;5.28;2.10;;;;;;;;;;5038292;28;20040;-53
2023/07/13 04:59:14;;;;;;;3.78;1.80;;;;;;;;;;5040754;28;20032;-52
2023/07/13 05:01:40;;;;;;;4.63;1.92;;;;;;;;;;5053378;28;20091;-51
2023/07/13 05:04:06;;;;;;;4.40;2.20;;;;;;;;;;5048059;28;20091;-55
2023/07/13 05:06:32;;;;;;;6.10;2.38;;;;;;;;;;5044981;28;20044;-55
2023/07/13 05:08:57;;;;;;;8.23;2.72;;;;;;;;;;5038469;28;20017;-54
2023/07/13 05:11:23;;;;;;;2.72;2.13;;;;;;;;;;5032962;28;20043;-56
2023/07/13 05:13:49;;;;;;;6.60;2.00;;;;;;;;;;5037930;28;20049;-52
2023/07/13 05:16:14;;;;;;;4.22;2.15;;;;;;;;;;5036259;28;20049;-52
2023/07/13 05:18:39;;;;;;;3.65;2.42;;;;;;;;;;5054773;28;20079;-51
2023/07/13 05:21:07;;;;;;;6.07;3.85;;;;;;;;;;5062112;28;20066;-54
2023/07/13 05:23:34;;;;;;;5.40;2.25;;;;;;;;;;5048786;28;20498;-55
2023/07/13 05:26:00;;;;;;;4.47;1.77;;;;;;;;;;5050675;28;20029;-55
2023/07/13 05:28:26;;;;;;;2.83;2.00;;;;;;;;;;5062119;28;20017;-52
2023/07/13 05:30:52;;;;;;;4.43;2.15;;;;;;;;;;5052725;28;20435;-55
2023/07/13 05:33:17;;;;;;;10.70;2.10;;;;;;;;;;5028817;28;20091;-53
2023/07/13 05:35:43;;;;;;;2.50;2.28;;;;;;;;;;5050597;28;20045;-51
2023/07/13 05:38:08;;;;;;;1.85;1.67;;;;;;;;;;5018039;28;20033;-51
2023/07/13 05:40:34;;;;;;;3.58;2.03;;;;;;;;;;5052061;28;20038;-51
2023/07/13 05:42:59;;;;;;;1.50;1.40;;;;;;;;;;5047664;28;20055;-53
2023/07/13 05:45:25;;;;;;;7.55;2.40;;;;;;;;;;5048875;28;20529;-51
2023/07/13 05:47:51;;;;;;;5.30;1.92;;;;;;;;;;5036479;28;20080;-51
2023/07/13 05:50:16;;;;;;;6.80;1.90;;;;;;;;;;5053721;28;20049;-54
2023/07/13 05:52:42;;;;;;;4.43;1.92;;;;;;;;;;5038529;28;20024;-54
2023/07/13 05:55:08;;;;;;;3.70;2.03;;;;;;;;;;5052996;28;20021;-54
2023/07/13 05:57:33;;;;;;;2.72;1.67;;;;;;;;;;5022732;28;20394;-55
2023/07/13 05:59:58;;;;;;;4.05;1.77;;;;;;;;;;5038295;28;20029;-52
2023/07/13 06:02:25;;;;;;;2.33;1.63;;;;;;;;;;5025334;28;20116;-54
2023/07/13 06:04:50;;;;;;;7.78;1.80;;;;;;;;;;5035468;28;20037;-53
2023/07/13 06:07:16;;;;;;;4.55;1.95;;;;;;;;;;5038099;28;20044;-54
2023/07/13 06:09:41;;;;;;;6.00;2.22;;;;;;;;;;5043375;28;20029;-53
2023/07/13 06:12:07;;;;;;;4.45;1.50;;;;;;;;;;5035554;28;20052;-55
2023/07/13 06:14:32;;;;;;;3.40;1.95;;;;;;;;;;5053615;28;20032;-54
2023/07/13 06:16:58;;;;;;;2.78;1.80;;;;;;;;;;5047770;28;20098;-54
2023/07/13 06:19:23;;;;;;;3.42;1.50;;;;;;;;;;5017401;28;20034;-53
2023/07/13 06:21:49;;;;;;;7.03;2.03;;;;;;;;;;5036791;28;20457;-53
2023/07/13 06:24:14;;;;;;;7.90;1.80;;;;;;;;;;5039798;28;20035;-52
2023/07/13 06:26:40;;;;;;;2.28;1.48;;;;;;;;;;5037646;28;20047;-53
2023/07/13 06:29:05;;;;;;;4.32;2.05;;;;;;;;;;5037272;28;20024;-54
2023/07/13 06:31:31;;;;;;;7.05;2.65;;;;;;;;;;5000813;28;20049;-56
2023/07/13 06:33:56;;;;;;;7.22;1.55;;;;;;;;;;5048450;28;20024;-54
2023/07/13 06:36:22;;;;;;;4.80;1.70;;;;;;;;;;5045298;28;20041;-54
2023/07/13 06:38:47;;;;;;;5.93;1.58;;;;;;;;;;5032790;28;20482;-55
2023/07/13 06:41:13;;;;;;;2.70;1.58;;;;;;;;;;5043319;28;20090;-51
2023/07/13 06:43:38;;;;;;;3.90;1.38;;;;;;;;;;5035980;28;20037;-54
2023/07/13 06:46:04;;;;;;;6.78;1.50;;;;;;;;;;5054738;28;20044;-54
2023/07/13 06:48:30;;;;;;;6.60;1.38;;;;;;;;;;5027024;28;20103;-51
2023/07/13 06:50:56;;;;;;;6.25;1.35;;;;;;;;;;5039298;28;20035;-55
2023/07/13 06:53:22;;;;;;;4.20;1.30;;;;;;;;;;5037647;28;20119;-59
2023/07/13 06:55:48;;;;;;;12.00;1.58;;;;;;;;;;5054196;28;20037;-49
2023/07/13 06:58:15;;;;;;;8.38;1.58;;;;;;;;;;5055248;28;20478;-54
2023/07/13 07:00:41;;;;;;;6.18;1.60;;;;;;;;;;5053736;28;20414;-54
2023/07/13 07:03:06;;;;;;;8.57;1.73;;;;;;;;;;5038019;28;20029;-55
2023/07/13 07:05:32;;;;;;;5.82;1.45;;;;;;;;;;5035845;28;20116;-52
2023/07/13 07:07:58;;;;;;;5.55;1.98;;;;;;;;;;5028301;28;20087;-55
2023/07/13 07:10:24;;;;;;;6.22;1.23;;;;;;;;;;5051865;28;20128;-53
2023/07/13 07:12:49;;;;;;;3.53;1.40;;;;;;;;;;5055589;28;20056;-55
2023/07/13 07:15:15;;;;;;;4.22;1.23;;;;;;;;;;5039723;28;20033;-54
2023/07/13 07:17:40;;;;;;;4.55;1.58;;;;;;;;;;5055408;28;20252;-54
2023/07/13 07:20:06;;;;;;;6.38;1.33;;;;;;;;;;5028215;28;20029;-55
2023/07/13 07:22:32;;;;;;;4.10;1.30;;;;;;;;;;5050399;28;20052;-56
2023/07/13 07:24:58;;;;;;;5.78;1.30;;;;;;;;;;5058093;28;20024;-54
2023/07/13 07:27:24;;;;;;;13.35;1.35;;;;;;;;;;5054320;28;20040;-52
2023/07/13 07:29:50;;;;;;;5.07;1.70;;;;;;;;;;5040097;28;20022;-54
2023/07/13 07:32:16;;;;;;;5.18;1.35;;;;;;;;;;5045290;28;20510;-54
2023/07/13 07:34:41;;;;;;;14.15;1.25;;;;;;;;;;5041799;28;20517;-52
2023/07/13 07:37:10;;;;;;;6.10;1.50;;;;;;;;;;5039574;28;20037;-52
2023/07/13 07:39:36;;;;;;;5.05;1.33;;;;;;;;;;5034714;28;20022;-51
2023/07/13 07:42:01;;;;;;;4.85;1.50;;;;;;;;;;5016379;28;20034;-49
2023/07/13 07:44:28;;;;;;;1.77;1.33;;;;;;;;;;5045379;28;20025;-55
2023/07/13 07:46:54;;;;;;;1.85;1.10;;;;;;;;;;5050347;28;20454;-52
2023/07/13 07:49:19;;;;;;;9.55;1.40;;;;;;;;;;5054541;28;20151;-54
2023/07/13 07:51:45;;;;;;;22.13;1.88;;;;;;;;;;5039851;28;20064;-56
2023/07/13 07:54:11;;;;;;;5.00;1.60;;;;;;;;;;5027491;28;20122;-50
2023/07/13 07:56:36;;;;;;;4.45;1.10;;;;;;;;;;5027227;28;20407;-50
2023/07/13 07:59:02;;;;;;;9.52;1.58;;;;;;;;;;5054756;28;20032;-52
2023/07/13 08:01:27;;;;;;;7.90;1.30;;;;;;;;;;5047195;28;20041;-51
2023/07/13 08:03:53;;;;;;;13.10;1.50;;;;;;;;;;5054741;28;20029;-53
2023/07/13 08:06:19;;;;;;;5.65;1.17;;;;;;;;;;5054398;28;20036;-54
2023/07/13 08:08:45;;;;;;;6.78;1.20;;;;;;;;;;5032435;28;20705;-53
2023/07/13 08:11:11;;;;;;;11.50;1.65;;;;;;;;;;5036449;28;20136;-55
2023/07/13 08:13:37;;;;;;;5.18;1.48;;;;;;;;;;5055128;28;20035;-52
2023/07/13 08:16:05;;;;;;;6.30;1.20;;;;;;;;;;5042678;28;20104;-55
2023/07/13 08:18:30;;;;;;;5.80;1.30;;;;;;;;;;5049327;28;20528;-49
2023/07/13 08:20:58;;;;;;;2.40;1.17;;;;;;;;;;5015808;28;20119;-52
2023/07/13 08:23:25;;;;;;;5.00;1.52;;;;;;;;;;5034438;28;20029;-56
2023/07/13 08:25:52;;;;;;;6.50;1.20;;;;;;;;;;5051532;28;20075;-51
2023/07/13 08:28:20;;;;;;;1.45;0.95;;;;;;;;;;5036107;28;20082;-53
2023/07/13 08:30:48;;;;;;;3.58;0.75;;;;;;;;;;5048388;28;20044;-54
2023/07/13 08:33:21;;;;;;;9.05;1.20;;;;;;;;;;5035004;28;20119;-51
2023/07/13 08:35:48;;;;;;;5.00;1.20;;;;;;;;;;5033427;28;20040;-51
2023/07/13 08:38:14;;;;;;;3.40;1.30;;;;;;;;;;5051613;28;20556;-53
2023/07/13 08:40:40;;;;;;;7.43;1.35;;;;;;;;;;5049096;28;20037;-51
2023/07/13 08:43:13;;;;;;;6.15;1.10;;;;;;;;;;5038347;28;20092;-52
2023/07/13 08:46:05;;;;;;;2.55;1.17;;;;;;;;;;5033078;28;20408;-53
2023/07/13 08:48:37;;;;;;;3.03;1.00;;;;;;;;;;5055504;28;20414;-51
2023/07/13 08:51:27;;;;;;;5.65;1.45;;;;;;;;;;5052017;28;20052;-50
2023/07/13 08:53:59;;;;;;;4.43;1.10;;;;;;;;;;5048491;28;20025;-55
2023/07/13 08:56:28;;;;;;;11.13;1.10;;;;;;;;;;5052015;28;20111;-54
2023/07/13 08:58:57;;;;;;;6.07;0.60;;;;;;;;;;5052541;28;20088;-54
2023/07/13 09:01:51;;;;;;;4.43;0.90;;;;;;;;;;5036322;28;20056;-52
2023/07/13 09:04:23;;;;;;;8.63;0.88;;;;;;;;;;5033178;28;20079;-52
2023/07/13 09:07:11;;;;;;;11.43;1.50;;;;;;;;;;5056020;28;20546;-51
2023/07/13 09:10:00;;;;;;;4.40;1.23;;;;;;;;;;5041635;28;20435;-50
2023/07/13 09:12:37;;;;;;;2.78;1.20;;;;;;;;;;5053575;28;20049;-51
2023/07/13 09:15:06;;;;;;;11.25;1.20;;;;;;;;;;5054960;28;20107;-53
2023/07/13 09:17:40;;;;;;;5.22;1.02;;;;;;;;;;5052402;28;20106;-51
2023/07/13 09:20:12;;;;;;;1.88;1.00;;;;;;;;;;5049653;28;20433;-57
2023/07/13 09:22:37;;;;;;;;;;;;;;;;;;5057197;28;20050;-50
2023/07/13 09:25:24;;;;;;;13.88;1.33;;;;;;;;;;5047049;28;19912;-50
2023/07/13 09:27:53;;;;;;;3.67;0.82;;;;;;;;;;5043294;28;20035;-53
2023/07/13 09:30:31;;;;;;;9.32;1.15;;;;;;;;;;5041826;28;20044;-52
2023/07/13 09:32:58;;;;;;;7.32;1.15;;;;;;;;;;5046982;28;20031;-54
2023/07/13 09:35:27;;;;;;;9.48;0.80;;;;;;;;;;5051533;28;20060;-56
2023/07/13 09:37:58;;;;;;;16.20;0.95;;;;;;;;;;5057706;28;20029;-54
2023/07/13 09:40:53;;;;;;;4.45;0.98;;;;;;;;;;5049001;28;20048;-51
2023/07/13 09:43:20;;;;;;;23.23;1.75;;;;;;;;;;5055722;28;20033;-54
2023/07/13 09:45:49;;;;;;;8.38;1.05;;;;;;;;;;5038768;28;20039;-51
2023/07/13 09:48:16;;;;;;;2.13;0.80;;;;;;;;;;5056097;28;20029;-52
2023/07/13 09:50:44;;;;;;;7.40;1.50;;;;;;;;;;5055619;28;20069;-53
2023/07/13 09:53:18;;;;;;;4.43;1.10;;;;;;;;;;5055204;28;20029;-54
2023/07/13 09:55:45;;;;;;;3.92;0.70;;;;;;;;;;5056127;28;20123;-53
2023/07/13 09:58:11;;;;;;;8.93;0.95;;;;;;;;;;5061407;28;20091;-50
2023/07/13 10:00:38;;;;;;;9.30;1.10;;;;;;;;;;5035098;28;20038;-52
2023/07/13 10:03:18;;;;;;;9.65;0.85;;;;;;;;;;5056915;28;20039;-52
2023/07/13 10:05:45;;;;;;;3.90;1.00;;;;;;;;;;5053783;28;20037;-52
2023/07/13 10:08:18;;;;;;;5.53;1.15;;;;;;;;;;5052912;28;20107;-53
2023/07/13 10:10:44;;;;;;;1.52;0.68;;;;;;;;;;5047868;28;20061;-54
2023/07/13 10:13:29;;;;;;;4.60;0.93;;;;;;;;;;5038516;28;20439;-49
2023/07/13 10:15:56;;;;;;;2.28;0.60;;;;;;;;;;5050230;28;20049;-55
2023/07/13 10:18:23;;;;;;;7.68;0.80;;;;;;;;;;5056961;28;20047;-53
2023/07/13 10:20:51;;;;;;;4.10;0.80;;;;;;;;;;5055043;28;20478;-54
2023/07/13 10:23:25;;;;;;;0.57;0.57;;;;;;;;;;5050030;28;20449;-53
2023/07/13 10:25:51;;;;;;;6.57;1.08;;;;;;;;;;5017612;28;20072;-51
2023/07/13 10:28:37;;;;;;;0.70;0.70;;;;;;;;;;5054003;28;20040;-52
2023/07/13 10:31:11;;;;;;;3.83;1.02;;;;;;;;;;5049378;28;20051;-55
2023/07/13 10:33:37;;;;;;;10.60;0.90;;;;;;;;;;5035858;28;20029;-50
2023/07/13 10:36:33;;;;;;;1.17;0.63;;;;;;;;;;5035256;28;20052;-54
2023/07/13 10:39:02;;;;;;;5.45;1.23;;;;;;;;;;5026487;28;20037;-54
2023/07/13 10:41:30;;;;;;;4.63;0.57;;;;;;;;;;5032647;28;20490;-53
2023/07/13 10:43:57;;;;;;;0.80;0.80;;;;;;;;;;5048725;28;20036;-54
2023/07/13 10:46:27;;;;;;;2.30;0.82;;;;;;;;;;5052807;28;20037;-53
2023/07/13 10:48:57;;;;;;;8.75;1.00;;;;;;;;;;5054867;28;20108;-51
2023/07/13 10:51:22;;;;;;;2.33;0.60;;;;;;;;;;5044806;28;20083;-52
2023/07/13 10:54:15;;;;;;;2.47;0.80;;;;;;;;;;5053725;28;20037;-55
2023/07/13 10:56:41;;;;;;;2.35;1.02;;;;;;;;;;5054540;28;20058;-55
2023/07/13 10:59:06;;;;;;;4.88;1.02;;;;;;;;;;5027786;28;20100;-56
2023/07/13 11:01:48;;;;;;;1.38;0.60;;;;;;;;;;5050056;28;20040;-54
2023/07/13 11:04:14;;;;;;;;;;;;;;;;;;5051162;28;20052;-54
2023/07/13 11:06:44;;;;;;;5.95;1.00;;;;;;;;;;5052955;28;19944;-53
2023/07/13 11:09:21;;;;;;;1.95;0.68;;;;;;;;;;5034606;28;20024;-54
2023/07/13 11:11:48;;;;;;;3.17;1.17;;;;;;;;;;5052593;28;20103;-52
2023/07/13 11:14:31;;;;;;;5.15;1.05;;;;;;;;;;5057217;28;20466;-56
2023/07/13 11:16:57;;;;;;;9.52;1.30;;;;;;;;;;5052232;28;20048;-55
2023/07/13 11:19:22;;;;;;;1.33;0.93;;;;;;;;;;5040920;28;20112;-55
2023/07/13 11:22:12;;;;;;;8.18;0.90;;;;;;;;;;5048153;28;20076;-55
2023/07/13 11:25:20;;;;;;;1.67;0.75;;;;;;;;;;5055423;28;20471;-54
2023/07/13 11:27:50;;;;;;;7.88;0.77;;;;;;;;;;5043739;28;20037;-50
2023/07/13 11:30:35;;;;;;;4.43;0.73;;;;;;;;;;5051306;28;20044;-54
2023/07/13 11:33:13;;;;;;;2.83;0.75;;;;;;;;;;5049242;28;20452;-51
2023/07/13 11:35:59;;;;;;;4.72;0.90;;;;;;;;;;5044372;28;20033;-55
2023/07/13 11:38:31;;;;;;;1.65;0.70;;;;;;;;;;5035902;28;20033;-54
2023/07/13 11:40:58;;;;;;;2.50;0.90;;;;;;;;;;5053711;28;20037;-52
2023/07/13 11:43:24;;;;;;;4.38;0.73;;;;;;;;;;5034603;28;20025;-54
2023/07/13 11:45:50;;;;;;;1.15;0.70;;;;;;;;;;5022298;28;20063;-57
2023/07/13 11:48:28;;;;;;;2.55;0.65;;;;;;;;;;5050165;28;20082;-50
2023/07/13 11:50:58;;;;;;;5.57;0.60;;;;;;;;;;5053366;28;20032;-52
2023/07/13 11:53:27;;;;;;;0.55;0.55;;;;;;;;;;5052091;28;20108;-52
2023/07/13 11:55:53;;;;;;;0.80;0.60;;;;;;;;;;5030400;28;20503;-51
2023/07/13 11:58:23;;;;;;;3.85;0.82;;;;;;;;;;5026573;28;20040;-49
2023/07/13 12:00:50;;;;;;;2.53;1.02;;;;;;;;;;5049655;28;20041;-52
2023/07/13 12:03:20;;;;;;;2.55;0.80;;;;;;;;;;5025523;28;20033;-49
2023/07/13 12:06:05;;;;;;;6.93;1.20;;;;;;;;;;5049979;28;20045;-52
2023/07/13 12:08:37;;;;;;;5.13;0.80;;;;;;;;;;5053813;28;20036;-50
2023/07/13 12:11:05;;;;;;;8.98;0.90;;;;;;;;;;5021752;28;20029;-52
2023/07/13 12:13:37;;;;;;;4.22;1.17;;;;;;;;;;5051804;28;20147;-55
2023/07/13 12:16:12;;;;;;;7.43;0.80;;;;;;;;;;5045796;28;20118;-49
2023/07/13 12:18:38;;;;;;;2.83;1.00;;;;;;;;;;5038422;28;20022;-52
2023/07/13 12:21:05;;;;;;;1.88;0.60;;;;;;;;;;5063543;28;20071;-54
2023/07/13 12:23:34;;;;;;;3.42;0.70;;;;;;;;;;5056160;28;20029;-48
2023/07/13 12:26:02;;;;;;;2.72;0.85;;;;;;;;;;5054764;28;20041;-53
2023/07/13 12:28:46;;;;;;;0.50;0.50;;;;;;;;;;5058985;28;20024;-55
2023/07/13 12:31:28;;;;;;;2.33;0.45;;;;;;;;;;5055320;28;20064;-54
2023/07/13 12:34:01;;;;;;;2.92;1.60;;;;;;;;;;5055900;28;20621;-52
2023/07/13 12:36:31;;;;;;;4.50;0.80;;;;;;;;;;5049870;28;20491;-56
2023/07/13 12:39:03;;;;;;;1.25;0.70;;;;;;;;;;5056976;28;20036;-51
2023/07/13 12:41:29;;;;;;;3.30;0.70;;;;;;;;;;5024022;28;20048;-55
2023/07/13 12:43:54;;;;;;;1.95;0.75;;;;;;;;;;5050300;28;20028;-56
2023/07/13 12:46:25;;;;;;;4.68;1.17;;;;;;;;;;5038344;28;20033;-51
2023/07/13 12:48:52;;;;;;;1.05;0.90;;;;;;;;;;5038616;28;20025;-49
2023/07/13 12:51:22;;;;;;;1.17;0.77;;;;;;;;;;5030658;28;20083;-48
2023/07/13 12:53:50;;;;;;;2.88;0.77;;;;;;;;;;5055981;28;20089;-55
2023/07/13 12:56:24;;;;;;;5.97;0.70;;;;;;;;;;5058240;28;20390;-53
2023/07/13 12:58:56;;;;;;;1.13;0.80;;;;;;;;;;5061383;28;20040;-54
2023/07/13 13:01:26;;;;;;;3.78;1.05;;;;;;;;;;5052871;28;20037;-53
2023/07/13 13:03:53;;;;;;;3.03;1.00;;;;;;;;;;5038711;28;20506;-52
2023/07/13 13:06:18;;;;;;;6.95;1.00;;;;;;;;;;5048897;28;20040;-52
2023/07/13 13:08:48;;;;;;;1.13;0.77;;;;;;;;;;5045102;28;20083;-53
2023/07/13 13:11:16;;;;;;;1.58;0.90;;;;;;;;;;5055972;28;20033;-49
2023/07/13 13:13:43;;;;;;;2.97;1.08;;;;;;;;;;5054208;28;20099;-54
2023/07/13 13:16:33;;;;;;;2.03;1.13;;;;;;;;;;5039103;28;20051;-55
2023/07/13 13:19:18;;;;;;;2.67;1.02;;;;;;;;;;5060897;28;20113;-54
2023/07/13 13:21:45;;;;;;;1.60;0.93;;;;;;;;;;5032099;28;20048;-53
2023/07/13 13:24:12;;;;;;;1.67;0.98;;;;;;;;;;5038278;28;20446;-55
2023/07/13 13:26:38;;;;;;;2.55;1.13;;;;;;;;;;5035655;28;20437;-57
2023/07/13 13:29:19;;;;;;;4.47;1.10;;;;;;;;;;5039836;28;20025;-56
2023/07/13 13:31:44;;;;;;;1.92;1.20;;;;;;;;;;5055893;28;20087;-54
2023/07/13 13:34:13;;;;;;;2.78;0.80;;;;;;;;;;5033898;28;20115;-51
2023/07/13 13:36:40;;;;;;;4.78;1.10;;;;;;;;;;5049561;28;20533;-54
2023/07/13 13:39:19;;;;;;;11.35;1.10;;;;;;;;;;5046757;28;20036;-52
2023/07/13 13:41:45;;;;;;;4.47;1.10;;;;;;;;;;5054482;28;20170;-51
2023/07/13 13:44:10;;;;;;;0.80;0.80;;;;;;;;;;5023671;28;20025;-55
2023/07/13 13:46:36;;;;;;;4.55;1.15;;;;;;;;;;5050637;28;20041;-53
2023/07/13 13:49:02;;;;;;;1.75;1.05;;;;;;;;;;5056403;28;20055;-54
2023/07/13 13:51:29;;;;;;;5.90;1.00;;;;;;;;;;5054854;28;20033;-52
2023/07/13 13:53:54;;;;;;;4.38;1.00;;;;;;;;;;5038788;28;20033;-51
2023/07/13 13:56:21;;;;;;;9.82;1.27;;;;;;;;;;5053606;28;20590;-52
2023/07/13 13:58:47;;;;;;;2.83;1.17;;;;;;;;;;5017885;28;20055;-50
2023/07/13 14:01:21;;;;;;;4.43;1.10;;;;;;;;;;5028796;28;20037;-54
2023/07/13 14:03:48;;;;;;;2.83;1.23;;;;;;;;;;5050515;28;20906;-54
2023/07/13 14:06:15;;;;;;;3.30;0.93;;;;;;;;;;5056890;28;20064;-56
2023/07/13 14:08:41;;;;;;;2.20;1.00;;;;;;;;;;5052639;28;20021;-54
2023/07/13 14:11:12;;;;;;;1.65;1.08;;;;;;;;;;5046159;28;20040;-53
2023/07/13 14:13:46;;;;;;;1.75;1.10;;;;;;;;;;5039484;28;20029;-54
2023/07/13 14:16:18;;;;;;;2.25;0.90;;;;;;;;;;5026748;28;20068;-50
2023/07/13 14:18:44;;;;;;;;;;;;;;;;;;5010722;28;20030;-53
2023/07/13 14:21:21;;;;;;;5.45;1.17;;;;;;;;;;5016513;28;20291;-53
2023/07/13 14:23:48;;;;;;;2.50;1.15;;;;;;;;;;5014145;28;20057;-51
2023/07/13 14:26:19;;;;;;;4.88;1.00;;;;;;;;;;5005694;28;20088;-52
2023/07/13 14:28:48;;;;;;;0.88;0.82;;;;;;;;;;5016657;28;20023;-51
2023/07/13 14:31:16;;;;;;;2.78;0.95;;;;;;;;;;5014547;28;20117;-54
2023/07/13 14:33:41;;;;;;;5.65;0.80;;;;;;;;;;5010705;28;20061;-54
2023/07/13 14:36:26;;;;;;;3.00;0.95;;;;;;;;;;5012975;28;20518;-53
2023/07/13 14:38:52;;;;;;;1.55;1.10;;;;;;;;;;5004575;28;20089;-55
2023/07/13 14:41:17;;;;;;;4.50;1.58;;;;;;;;;;5009214;28;20057;-55
2023/07/13 14:43:43;;;;;;;1.75;1.20;;;;;;;;;;5014878;28;20026;-53
2023/07/13 14:46:36;;;;;;;5.78;1.23;;;;;;;;;;5021372;28;20052;-53
2023/07/13 14:49:26;;;;;;;2.45;1.20;;;;;;;;;;5015610;28;20087;-52
2023/07/13 14:51:52;;;;;;;4.15;1.00;;;;;;;;;;5003683;28;20046;-51